sensor_id;sensor_type;location;lat;lon;timestamp;P1;durP1;ratioP1;P2;durP2;ratioP2
58240;SDS011;45058;55.772;38.224;2023-01-30T00:00:54;31.37;;;16.20;;
58240;SDS011;45058;55.772;38.224;2023-01-30T00:03:23;30.80;;;13.37;;
58240;SDS011;45058;55.772;38.224;2023-01-30T00:05:49;38.00;;;17.17;;
58240;SDS011;45058;55.772;38.224;2023-01-30T00:08:15;35.93;;;17.17;;
58240;SDS011;45058;55.772;38.224;2023-01-30T00:10:42;40.60;;;18.30;;
58240;SDS011;45058;55.772;38.224;2023-01-30T00:13:08;33.97;;;16.73;;
58240;SDS011;45058;55.772;38.224;2023-01-30T00:15:35;37.90;;;16.13;;
58240;SDS011;45058;55.772;38.224;2023-01-30T00:18:01;34.70;;;17.30;;
58240;SDS011;45058;55.772;38.224;2023-01-30T00:20:27;35.53;;;16.50;;
58240;SDS011;45058;55.772;38.224;2023-01-30T00:22:53;32.80;;;16.77;;
58240;SDS011;45058;55.772;38.224;2023-01-30T00:25:19;35.57;;;16.97;;
58240;SDS011;45058;55.772;38.224;2023-01-30T00:27:45;37.57;;;17.20;;
58240;SDS011;45058;55.772;38.224;2023-01-30T00:30:11;35.67;;;16.67;;
58240;SDS011;45058;55.772;38.224;2023-01-30T00:32:56;27.40;;;13.37;;
58240;SDS011;45058;55.772;38.224;2023-01-30T00:35:23;31.07;;;16.47;;
58240;SDS011;45058;55.772;38.224;2023-01-30T00:37:56;36.27;;;17.17;;
58240;SDS011;45058;55.772;38.224;2023-01-30T00:40:23;34.23;;;15.83;;
58240;SDS011;45058;55.772;38.224;2023-01-30T00:42:50;31.93;;;15.63;;
58240;SDS011;45058;55.772;38.224;2023-01-30T00:45:34;34.87;;;16.97;;
58240;SDS011;45058;55.772;38.224;2023-01-30T00:48:20;37.15;;;16.83;;
58240;SDS011;45058;55.772;38.224;2023-01-30T00:50:46;29.77;;;14.13;;
58240;SDS011;45058;55.772;38.224;2023-01-30T00:53:12;34.13;;;15.73;;
58240;SDS011;45058;55.772;38.224;2023-01-30T00:55:39;32.27;;;15.30;;
58240;SDS011;45058;55.772;38.224;2023-01-30T00:58:06;31.10;;;14.53;;
58240;SDS011;45058;55.772;38.224;2023-01-30T01:00:32;28.87;;;15.87;;
58240;SDS011;45058;55.772;38.224;2023-01-30T01:02:58;30.97;;;15.93;;
58240;SDS011;45058;55.772;38.224;2023-01-30T01:05:24;31.80;;;16.17;;
58240;SDS011;45058;55.772;38.224;2023-01-30T01:07:51;31.47;;;14.80;;
58240;SDS011;45058;55.772;38.224;2023-01-30T01:10:17;32.07;;;15.77;;
58240;SDS011;45058;55.772;38.224;2023-01-30T01:12:44;32.27;;;14.60;;
58240;SDS011;45058;55.772;38.224;2023-01-30T01:15:11;30.63;;;16.00;;
58240;SDS011;45058;55.772;38.224;2023-01-30T01:17:37;34.97;;;15.53;;
58240;SDS011;45058;55.772;38.224;2023-01-30T01:20:04;32.90;;;15.80;;
58240;SDS011;45058;55.772;38.224;2023-01-30T01:22:31;38.10;;;16.17;;
58240;SDS011;45058;55.772;38.224;2023-01-30T01:24:57;35.53;;;17.17;;
58240;SDS011;45058;55.772;38.224;2023-01-30T01:27:23;33.57;;;16.90;;
58240;SDS011;45058;55.772;38.224;2023-01-30T01:29:49;40.50;;;18.60;;
58240;SDS011;45058;55.772;38.224;2023-01-30T01:32:15;35.53;;;17.83;;
58240;SDS011;45058;55.772;38.224;2023-01-30T01:34:41;33.13;;;17.67;;
58240;SDS011;45058;55.772;38.224;2023-01-30T01:37:07;35.37;;;17.90;;
58240;SDS011;45058;55.772;38.224;2023-01-30T01:39:34;40.70;;;19.57;;
58240;SDS011;45058;55.772;38.224;2023-01-30T01:42:19;38.17;;;17.80;;
58240;SDS011;45058;55.772;38.224;2023-01-30T01:47:29;43.83;;;18.87;;
58240;SDS011;45058;55.772;38.224;2023-01-30T01:49:57;37.93;;;16.83;;
58240;SDS011;45058;55.772;38.224;2023-01-30T01:52:22;38.87;;;18.27;;
58240;SDS011;45058;55.772;38.224;2023-01-30T01:54:53;41.37;;;17.53;;
58240;SDS011;45058;55.772;38.224;2023-01-30T01:57:40;43.27;;;18.00;;
58240;SDS011;45058;55.772;38.224;2023-01-30T02:00:14;43.17;;;19.00;;
58240;SDS011;45058;55.772;38.224;2023-01-30T02:03:01;44.67;;;20.27;;
58240;SDS011;45058;55.772;38.224;2023-01-30T02:05:31;42.53;;;19.60;;
58240;SDS011;45058;55.772;38.224;2023-01-30T02:08:10;39.00;;;17.60;;
58240;SDS011;45058;55.772;38.224;2023-01-30T02:10:42;39.60;;;17.97;;
58240;SDS011;45058;55.772;38.224;2023-01-30T02:13:15;45.37;;;19.80;;
58240;SDS011;45058;55.772;38.224;2023-01-30T02:15:42;44.13;;;19.57;;
58240;SDS011;45058;55.772;38.224;2023-01-30T02:18:08;32.13;;;17.27;;
58240;SDS011;45058;55.772;38.224;2023-01-30T02:44:58;41.47;;;17.97;;
58240;SDS011;45058;55.772;38.224;2023-01-30T02:47:31;39.43;;;18.60;;
58240;SDS011;45058;55.772;38.224;2023-01-30T02:50:03;40.53;;;17.33;;
58240;SDS011;45058;55.772;38.224;2023-01-30T02:52:32;40.13;;;17.57;;
58240;SDS011;45058;55.772;38.224;2023-01-30T02:54:59;38.37;;;18.00;;
58240;SDS011;45058;55.772;38.224;2023-01-30T02:57:24;41.13;;;15.97;;
58240;SDS011;45058;55.772;38.224;2023-01-30T02:59:56;35.30;;;15.53;;
58240;SDS011;45058;55.772;38.224;2023-01-30T03:18:41;33.93;;;16.50;;
58240;SDS011;45058;55.772;38.224;2023-01-30T03:21:07;31.63;;;16.60;;
58240;SDS011;45058;55.772;38.224;2023-01-30T03:23:33;36.23;;;17.60;;
58240;SDS011;45058;55.772;38.224;2023-01-30T03:26:02;37.13;;;18.23;;
58240;SDS011;45058;55.772;38.224;2023-01-30T03:28:29;37.30;;;17.03;;
58240;SDS011;45058;55.772;38.224;2023-01-30T03:31:00;31.77;;;16.33;;
58240;SDS011;45058;55.772;38.224;2023-01-30T03:33:27;34.80;;;16.67;;
58240;SDS011;45058;55.772;38.224;2023-01-30T03:35:53;34.40;;;16.43;;
58240;SDS011;45058;55.772;38.224;2023-01-30T03:38:19;34.37;;;16.87;;
58240;SDS011;45058;55.772;38.224;2023-01-30T03:40:50;33.80;;;15.73;;
58240;SDS011;45058;55.772;38.224;2023-01-30T03:43:16;31.20;;;16.47;;
58240;SDS011;45058;55.772;38.224;2023-01-30T03:45:42;35.47;;;16.87;;
58240;SDS011;45058;55.772;38.224;2023-01-30T03:48:08;38.50;;;16.80;;
58240;SDS011;45058;55.772;38.224;2023-01-30T03:50:34;32.30;;;15.90;;
58240;SDS011;45058;55.772;38.224;2023-01-30T03:53:00;35.80;;;16.13;;
58240;SDS011;45058;55.772;38.224;2023-01-30T03:55:27;40.10;;;17.33;;
58240;SDS011;45058;55.772;38.224;2023-01-30T03:57:54;36.00;;;16.80;;
58240;SDS011;45058;55.772;38.224;2023-01-30T04:00:21;32.33;;;15.77;;
58240;SDS011;45058;55.772;38.224;2023-01-30T04:02:49;31.17;;;16.40;;
58240;SDS011;45058;55.772;38.224;2023-01-30T04:05:16;33.10;;;15.40;;
58240;SDS011;45058;55.772;38.224;2023-01-30T04:07:48;31.33;;;16.23;;
58240;SDS011;45058;55.772;38.224;2023-01-30T04:10:15;36.50;;;17.50;;
58240;SDS011;45058;55.772;38.224;2023-01-30T04:12:45;31.77;;;16.03;;
58240;SDS011;45058;55.772;38.224;2023-01-30T04:15:12;33.73;;;16.43;;
58240;SDS011;45058;55.772;38.224;2023-01-30T04:17:47;34.70;;;16.73;;
58240;SDS011;45058;55.772;38.224;2023-01-30T04:20:31;34.50;;;15.47;;
58240;SDS011;45058;55.772;38.224;2023-01-30T04:22:58;28.40;;;15.20;;
58240;SDS011;45058;55.772;38.224;2023-01-30T04:25:26;31.13;;;16.40;;
58240;SDS011;45058;55.772;38.224;2023-01-30T04:27:52;30.83;;;16.53;;
58240;SDS011;45058;55.772;38.224;2023-01-30T04:30:22;36.67;;;17.40;;
58240;SDS011;45058;55.772;38.224;2023-01-30T04:32:53;39.67;;;17.83;;
58240;SDS011;45058;55.772;38.224;2023-01-30T04:35:20;37.00;;;17.07;;
58240;SDS011;45058;55.772;38.224;2023-01-30T04:37:46;37.80;;;17.27;;
58240;SDS011;45058;55.772;38.224;2023-01-30T04:40:16;29.63;;;14.73;;
58240;SDS011;45058;55.772;38.224;2023-01-30T04:42:43;36.20;;;16.83;;
58240;SDS011;45058;55.772;38.224;2023-01-30T04:45:28;34.17;;;15.93;;
58240;SDS011;45058;55.772;38.224;2023-01-30T04:47:54;34.97;;;15.97;;
58240;SDS011;45058;55.772;38.224;2023-01-30T04:50:20;36.30;;;17.80;;
58240;SDS011;45058;55.772;38.224;2023-01-30T04:52:46;34.60;;;17.63;;
58240;SDS011;45058;55.772;38.224;2023-01-30T04:55:12;34.93;;;16.97;;
58240;SDS011;45058;55.772;38.224;2023-01-30T04:57:39;35.90;;;18.10;;
58240;SDS011;45058;55.772;38.224;2023-01-30T05:00:05;43.97;;;19.40;;
58240;SDS011;45058;55.772;38.224;2023-01-30T05:02:34;36.70;;;17.73;;
58240;SDS011;45058;55.772;38.224;2023-01-30T05:05:00;39.53;;;17.90;;
58240;SDS011;45058;55.772;38.224;2023-01-30T05:07:26;39.53;;;18.50;;
58240;SDS011;45058;55.772;38.224;2023-01-30T05:09:52;40.47;;;17.90;;
58240;SDS011;45058;55.772;38.224;2023-01-30T05:12:18;33.03;;;17.80;;
58240;SDS011;45058;55.772;38.224;2023-01-30T05:14:43;37.47;;;17.90;;
58240;SDS011;45058;55.772;38.224;2023-01-30T05:17:10;38.60;;;18.23;;
58240;SDS011;45058;55.772;38.224;2023-01-30T05:19:36;40.13;;;18.60;;
58240;SDS011;45058;55.772;38.224;2023-01-30T05:22:02;36.63;;;18.40;;
58240;SDS011;45058;55.772;38.224;2023-01-30T05:24:28;35.60;;;17.90;;
58240;SDS011;45058;55.772;38.224;2023-01-30T05:26:54;39.27;;;19.67;;
58240;SDS011;45058;55.772;38.224;2023-01-30T05:29:20;36.87;;;18.83;;
58240;SDS011;45058;55.772;38.224;2023-01-30T05:31:46;36.83;;;19.03;;
58240;SDS011;45058;55.772;38.224;2023-01-30T05:34:12;34.73;;;17.67;;
58240;SDS011;45058;55.772;38.224;2023-01-30T05:36:38;34.80;;;18.37;;
58240;SDS011;45058;55.772;38.224;2023-01-30T05:39:04;34.90;;;18.13;;
58240;SDS011;45058;55.772;38.224;2023-01-30T05:41:30;35.10;;;18.10;;
58240;SDS011;45058;55.772;38.224;2023-01-30T05:43:56;35.10;;;17.87;;
58240;SDS011;45058;55.772;38.224;2023-01-30T05:46:22;31.20;;;16.63;;
58240;SDS011;45058;55.772;38.224;2023-01-30T05:48:48;32.37;;;17.20;;
58240;SDS011;45058;55.772;38.224;2023-01-30T05:51:18;30.83;;;15.27;;
58240;SDS011;45058;55.772;38.224;2023-01-30T05:53:47;32.70;;;17.03;;
58240;SDS011;45058;55.772;38.224;2023-01-30T05:56:14;35.00;;;17.87;;
58240;SDS011;45058;55.772;38.224;2023-01-30T05:58:40;36.53;;;15.73;;
58240;SDS011;45058;55.772;38.224;2023-01-30T06:01:07;38.90;;;17.17;;
58240;SDS011;45058;55.772;38.224;2023-01-30T06:03:35;33.73;;;17.10;;
58240;SDS011;45058;55.772;38.224;2023-01-30T06:06:01;29.03;;;14.73;;
58240;SDS011;45058;55.772;38.224;2023-01-30T06:08:28;29.83;;;16.40;;
58240;SDS011;45058;55.772;38.224;2023-01-30T06:10:58;29.53;;;15.13;;
58240;SDS011;45058;55.772;38.224;2023-01-30T06:13:25;35.03;;;17.17;;
58240;SDS011;45058;55.772;38.224;2023-01-30T06:15:51;29.70;;;16.20;;
58240;SDS011;45058;55.772;38.224;2023-01-30T06:18:17;31.43;;;17.00;;
58240;SDS011;45058;55.772;38.224;2023-01-30T06:20:47;31.97;;;16.87;;
58240;SDS011;45058;55.772;38.224;2023-01-30T06:23:14;31.53;;;17.07;;
58240;SDS011;45058;55.772;38.224;2023-01-30T06:25:44;31.23;;;16.60;;
58240;SDS011;45058;55.772;38.224;2023-01-30T06:28:10;32.33;;;16.90;;
58240;SDS011;45058;55.772;38.224;2023-01-30T06:30:37;31.60;;;16.17;;
58240;SDS011;45058;55.772;38.224;2023-01-30T06:33:03;29.67;;;15.77;;
58240;SDS011;45058;55.772;38.224;2023-01-30T06:35:29;30.70;;;15.80;;
58240;SDS011;45058;55.772;38.224;2023-01-30T06:37:55;34.13;;;16.37;;
58240;SDS011;45058;55.772;38.224;2023-01-30T06:40:21;27.87;;;14.20;;
58240;SDS011;45058;55.772;38.224;2023-01-30T06:42:47;28.40;;;16.13;;
58240;SDS011;45058;55.772;38.224;2023-01-30T06:45:14;30.50;;;15.93;;
58240;SDS011;45058;55.772;38.224;2023-01-30T06:47:45;26.73;;;14.67;;
58240;SDS011;45058;55.772;38.224;2023-01-30T06:50:19;25.37;;;14.47;;
58240;SDS011;45058;55.772;38.224;2023-01-30T06:52:46;33.47;;;15.63;;
58240;SDS011;45058;55.772;38.224;2023-01-30T06:55:15;31.10;;;16.33;;
58240;SDS011;45058;55.772;38.224;2023-01-30T06:57:42;27.97;;;15.33;;
58240;SDS011;45058;55.772;38.224;2023-01-30T07:00:17;30.53;;;15.23;;
58240;SDS011;45058;55.772;38.224;2023-01-30T07:02:44;32.60;;;15.77;;
58240;SDS011;45058;55.772;38.224;2023-01-30T07:05:11;26.20;;;14.97;;
58240;SDS011;45058;55.772;38.224;2023-01-30T07:07:37;28.97;;;15.20;;
58240;SDS011;45058;55.772;38.224;2023-01-30T07:10:04;29.43;;;15.70;;
58240;SDS011;45058;55.772;38.224;2023-01-30T07:12:31;34.77;;;18.63;;
58240;SDS011;45058;55.772;38.224;2023-01-30T07:14:57;33.67;;;18.57;;
58240;SDS011;45058;55.772;38.224;2023-01-30T07:17:23;38.50;;;20.00;;
58240;SDS011;45058;55.772;38.224;2023-01-30T07:19:49;28.67;;;15.53;;
58240;SDS011;45058;55.772;38.224;2023-01-30T07:22:15;29.13;;;16.07;;
58240;SDS011;45058;55.772;38.224;2023-01-30T07:24:42;28.37;;;15.40;;
58240;SDS011;45058;55.772;38.224;2023-01-30T07:27:08;27.97;;;14.63;;
58240;SDS011;45058;55.772;38.224;2023-01-30T07:29:35;29.10;;;15.43;;
58240;SDS011;45058;55.772;38.224;2023-01-30T07:32:02;28.67;;;16.40;;
58240;SDS011;45058;55.772;38.224;2023-01-30T07:34:28;28.43;;;17.27;;
58240;SDS011;45058;55.772;38.224;2023-01-30T07:36:54;31.47;;;16.33;;
58240;SDS011;45058;55.772;38.224;2023-01-30T07:39:20;29.77;;;16.67;;
58240;SDS011;45058;55.772;38.224;2023-01-30T07:41:46;28.47;;;15.40;;
58240;SDS011;45058;55.772;38.224;2023-01-30T07:44:12;28.70;;;15.87;;
58240;SDS011;45058;55.772;38.224;2023-01-30T07:46:38;30.53;;;14.67;;
58240;SDS011;45058;55.772;38.224;2023-01-30T07:49:05;28.97;;;16.87;;
58240;SDS011;45058;55.772;38.224;2023-01-30T07:51:32;28.97;;;16.03;;
58240;SDS011;45058;55.772;38.224;2023-01-30T07:53:58;32.60;;;16.30;;
58240;SDS011;45058;55.772;38.224;2023-01-30T07:56:25;27.73;;;16.00;;
58240;SDS011;45058;55.772;38.224;2023-01-30T07:58:52;28.80;;;14.40;;
58240;SDS011;45058;55.772;38.224;2023-01-30T08:01:19;28.43;;;15.57;;
58240;SDS011;45058;55.772;38.224;2023-01-30T08:03:45;28.03;;;15.90;;
58240;SDS011;45058;55.772;38.224;2023-01-30T08:06:13;23.03;;;14.00;;
58240;SDS011;45058;55.772;38.224;2023-01-30T08:08:40;28.93;;;15.77;;
58240;SDS011;45058;55.772;38.224;2023-01-30T08:11:06;29.03;;;15.23;;
58240;SDS011;45058;55.772;38.224;2023-01-30T08:13:32;28.63;;;15.60;;
58240;SDS011;45058;55.772;38.224;2023-01-30T08:15:59;28.67;;;15.33;;
58240;SDS011;45058;55.772;38.224;2023-01-30T08:18:27;25.63;;;15.00;;
58240;SDS011;45058;55.772;38.224;2023-01-30T08:20:57;25.60;;;14.43;;
58240;SDS011;45058;55.772;38.224;2023-01-30T08:23:24;30.80;;;15.87;;
58240;SDS011;45058;55.772;38.224;2023-01-30T08:25:56;25.03;;;14.17;;
58240;SDS011;45058;55.772;38.224;2023-01-30T08:28:25;30.20;;;13.50;;
58240;SDS011;45058;55.772;38.224;2023-01-30T08:30:54;34.67;;;19.23;;
58240;SDS011;45058;55.772;38.224;2023-01-30T08:33:21;22.10;;;12.77;;
58240;SDS011;45058;55.772;38.224;2023-01-30T08:35:48;24.40;;;14.40;;
58240;SDS011;45058;55.772;38.224;2023-01-30T08:38:14;28.63;;;13.40;;
58240;SDS011;45058;55.772;38.224;2023-01-30T08:40:40;22.67;;;13.30;;
58240;SDS011;45058;55.772;38.224;2023-01-30T08:43:06;22.93;;;13.17;;
58240;SDS011;45058;55.772;38.224;2023-01-30T08:45:32;26.80;;;14.17;;
58240;SDS011;45058;55.772;38.224;2023-01-30T08:47:59;23.07;;;13.17;;
58240;SDS011;45058;55.772;38.224;2023-01-30T08:50:25;27.00;;;13.13;;
58240;SDS011;45058;55.772;38.224;2023-01-30T08:52:51;20.57;;;13.13;;
58240;SDS011;45058;55.772;38.224;2023-01-30T08:55:17;23.93;;;13.17;;
58240;SDS011;45058;55.772;38.224;2023-01-30T08:57:44;20.57;;;12.67;;
58240;SDS011;45058;55.772;38.224;2023-01-30T09:00:10;22.57;;;14.43;;
58240;SDS011;45058;55.772;38.224;2023-01-30T09:02:37;23.87;;;12.63;;
58240;SDS011;45058;55.772;38.224;2023-01-30T09:05:03;23.83;;;13.50;;
58240;SDS011;45058;55.772;38.224;2023-01-30T09:07:30;21.77;;;12.43;;
58240;SDS011;45058;55.772;38.224;2023-01-30T09:09:56;24.97;;;12.77;;
58240;SDS011;45058;55.772;38.224;2023-01-30T09:12:22;21.43;;;11.20;;
58240;SDS011;45058;55.772;38.224;2023-01-30T09:14:48;24.47;;;13.60;;
58240;SDS011;45058;55.772;38.224;2023-01-30T09:17:14;23.77;;;12.90;;
58240;SDS011;45058;55.772;38.224;2023-01-30T09:19:40;23.13;;;12.53;;
58240;SDS011;45058;55.772;38.224;2023-01-30T09:22:06;21.47;;;12.50;;
58240;SDS011;45058;55.772;38.224;2023-01-30T09:24:32;20.40;;;11.93;;
58240;SDS011;45058;55.772;38.224;2023-01-30T09:26:58;20.07;;;11.40;;
58240;SDS011;45058;55.772;38.224;2023-01-30T09:29:25;20.43;;;12.27;;
58240;SDS011;45058;55.772;38.224;2023-01-30T09:31:51;20.70;;;12.37;;
58240;SDS011;45058;55.772;38.224;2023-01-30T09:34:18;22.20;;;12.43;;
58240;SDS011;45058;55.772;38.224;2023-01-30T09:36:44;26.03;;;11.73;;
58240;SDS011;45058;55.772;38.224;2023-01-30T09:39:10;21.77;;;11.43;;
58240;SDS011;45058;55.772;38.224;2023-01-30T09:41:52;19.63;;;12.37;;
58240;SDS011;45058;55.772;38.224;2023-01-30T09:55:43;19.57;;;11.13;;
58240;SDS011;45058;55.772;38.224;2023-01-30T09:58:13;22.27;;;13.47;;
58240;SDS011;45058;55.772;38.224;2023-01-30T10:00:44;23.90;;;12.90;;
58240;SDS011;45058;55.772;38.224;2023-01-30T10:03:17;25.37;;;13.67;;
58240;SDS011;45058;55.772;38.224;2023-01-30T10:06:05;20.37;;;11.50;;
58240;SDS011;45058;55.772;38.224;2023-01-30T10:22:14;25.20;;;14.43;;
58240;SDS011;45058;55.772;38.224;2023-01-30T10:27:29;22.17;;;14.40;;
58240;SDS011;45058;55.772;38.224;2023-01-30T10:29:57;22.77;;;13.93;;
58240;SDS011;45058;55.772;38.224;2023-01-30T10:32:28;23.27;;;14.80;;
58240;SDS011;45058;55.772;38.224;2023-01-30T10:34:57;24.23;;;14.87;;
58240;SDS011;45058;55.772;38.224;2023-01-30T10:37:29;21.60;;;13.33;;
58240;SDS011;45058;55.772;38.224;2023-01-30T10:45:15;20.23;;;11.87;;
58240;SDS011;45058;55.772;38.224;2023-01-30T10:50:18;18.73;;;11.63;;
58240;SDS011;45058;55.772;38.224;2023-01-30T11:05:48;18.02;;;11.10;;
58240;SDS011;45058;55.772;38.224;2023-01-30T11:08:23;19.73;;;11.33;;
58240;SDS011;45058;55.772;38.224;2023-01-30T11:10:54;23.33;;;11.80;;
58240;SDS011;45058;55.772;38.224;2023-01-30T11:13:22;19.73;;;11.07;;
58240;SDS011;45058;55.772;38.224;2023-01-30T11:15:55;18.90;;;11.33;;
58240;SDS011;45058;55.772;38.224;2023-01-30T11:18:28;18.07;;;10.70;;
58240;SDS011;45058;55.772;38.224;2023-01-30T11:20:59;18.10;;;9.87;;
58240;SDS011;45058;55.772;38.224;2023-01-30T11:23:32;17.93;;;10.60;;
58240;SDS011;45058;55.772;38.224;2023-01-30T11:26:00;18.87;;;10.93;;
58240;SDS011;45058;55.772;38.224;2023-01-30T11:28:27;18.53;;;10.63;;
58240;SDS011;45058;55.772;38.224;2023-01-30T11:30:59;25.90;;;12.47;;
58240;SDS011;45058;55.772;38.224;2023-01-30T11:33:33;20.83;;;11.40;;
58240;SDS011;45058;55.772;38.224;2023-01-30T11:36:02;15.30;;;8.85;;
58240;SDS011;45058;55.772;38.224;2023-01-30T11:38:31;18.53;;;10.67;;
58240;SDS011;45058;55.772;38.224;2023-01-30T11:43:28;18.73;;;11.27;;
58240;SDS011;45058;55.772;38.224;2023-01-30T11:45:54;21.37;;;12.40;;
58240;SDS011;45058;55.772;38.224;2023-01-30T11:48:21;21.77;;;13.23;;
58240;SDS011;45058;55.772;38.224;2023-01-30T11:50:54;20.40;;;11.67;;
58240;SDS011;45058;55.772;38.224;2023-01-30T11:53:25;21.97;;;12.97;;
58240;SDS011;45058;55.772;38.224;2023-01-30T11:55:56;23.73;;;12.37;;
58240;SDS011;45058;55.772;38.224;2023-01-30T11:58:23;23.73;;;13.20;;
58240;SDS011;45058;55.772;38.224;2023-01-30T12:00:55;22.23;;;13.03;;
58240;SDS011;45058;55.772;38.224;2023-01-30T12:03:21;22.30;;;13.23;;
58240;SDS011;45058;55.772;38.224;2023-01-30T12:05:49;18.77;;;11.97;;
58240;SDS011;45058;55.772;38.224;2023-01-30T12:10:46;18.93;;;10.13;;
58240;SDS011;45058;55.772;38.224;2023-01-30T12:13:23;19.93;;;12.57;;
58240;SDS011;45058;55.772;38.224;2023-01-30T12:15:56;20.00;;;12.53;;
58240;SDS011;45058;55.772;38.224;2023-01-30T12:18:37;20.63;;;12.10;;
58240;SDS011;45058;55.772;38.224;2023-01-30T12:24:10;21.43;;;11.80;;
58240;SDS011;45058;55.772;38.224;2023-01-30T12:26:45;18.40;;;12.43;;
58240;SDS011;45058;55.772;38.224;2023-01-30T12:29:23;19.07;;;12.03;;
58240;SDS011;45058;55.772;38.224;2023-01-30T12:32:10;20.00;;;11.77;;
58240;SDS011;45058;55.772;38.224;2023-01-30T12:34:46;21.30;;;12.50;;
58240;SDS011;45058;55.772;38.224;2023-01-30T12:52:54;17.77;;;11.50;;
58240;SDS011;45058;55.772;38.224;2023-01-30T12:55:47;20.97;;;11.97;;
58240;SDS011;45058;55.772;38.224;2023-01-30T13:03:29;21.55;;;12.80;;
58240;SDS011;45058;55.772;38.224;2023-01-30T13:06:09;24.60;;;13.90;;
58240;SDS011;45058;55.772;38.224;2023-01-30T13:23:00;20.10;;;10.30;;
58240;SDS011;45058;55.772;38.224;2023-01-30T13:25:33;25.57;;;11.37;;
58240;SDS011;45058;55.772;38.224;2023-01-30T13:28:05;17.60;;;9.77;;
58240;SDS011;45058;55.772;38.224;2023-01-30T13:30:51;18.10;;;10.47;;
58240;SDS011;45058;55.772;38.224;2023-01-30T13:33:19;15.50;;;10.00;;
58240;SDS011;45058;55.772;38.224;2023-01-30T13:35:51;18.07;;;9.57;;
58240;SDS011;45058;55.772;38.224;2023-01-30T13:38:23;17.40;;;9.67;;
58240;SDS011;45058;55.772;38.224;2023-01-30T13:40:52;17.87;;;9.97;;
58240;SDS011;45058;55.772;38.224;2023-01-30T13:45:59;15.97;;;8.43;;
58240;SDS011;45058;55.772;38.224;2023-01-30T13:48:31;14.87;;;9.27;;
58240;SDS011;45058;55.772;38.224;2023-01-30T13:51:06;16.27;;;8.77;;
58240;SDS011;45058;55.772;38.224;2023-01-30T13:56:29;13.87;;;7.43;;
58240;SDS011;45058;55.772;38.224;2023-01-30T14:04:52;14.37;;;7.93;;
58240;SDS011;45058;55.772;38.224;2023-01-30T14:07:31;14.67;;;7.70;;
58240;SDS011;45058;55.772;38.224;2023-01-30T14:12:36;15.77;;;7.50;;
58240;SDS011;45058;55.772;38.224;2023-01-30T14:18:03;14.63;;;7.77;;
58240;SDS011;45058;55.772;38.224;2023-01-30T14:22:58;11.60;;;7.40;;
58240;SDS011;45058;55.772;38.224;2023-01-30T14:25:44;15.33;;;7.83;;
58240;SDS011;45058;55.772;38.224;2023-01-30T14:30:52;12.33;;;7.40;;
58240;SDS011;45058;55.772;38.224;2023-01-30T14:35:46;10.73;;;6.63;;
58240;SDS011;45058;55.772;38.224;2023-01-30T14:40:46;10.17;;;6.00;;
58240;SDS011;45058;55.772;38.224;2023-01-30T14:53:52;9.63;;;5.97;;
58240;SDS011;45058;55.772;38.224;2023-01-30T14:59:25;9.37;;;5.90;;
58240;SDS011;45058;55.772;38.224;2023-01-30T15:01:55;10.93;;;5.70;;
58240;SDS011;45058;55.772;38.224;2023-01-30T15:04:28;9.07;;;5.70;;
58240;SDS011;45058;55.772;38.224;2023-01-30T15:06:58;8.50;;;5.53;;
58240;SDS011;45058;55.772;38.224;2023-01-30T15:09:26;7.00;;;4.33;;
58240;SDS011;45058;55.772;38.224;2023-01-30T15:12:01;8.87;;;4.70;;
58240;SDS011;45058;55.772;38.224;2023-01-30T15:14:51;8.67;;;4.90;;
58240;SDS011;45058;55.772;38.224;2023-01-30T15:17:37;9.53;;;3.90;;
58240;SDS011;45058;55.772;38.224;2023-01-30T15:20:27;6.23;;;4.10;;
58240;SDS011;45058;55.772;38.224;2023-01-30T15:23:02;7.07;;;4.60;;
58240;SDS011;45058;55.772;38.224;2023-01-30T15:25:35;6.97;;;4.33;;
58240;SDS011;45058;55.772;38.224;2023-01-30T15:28:07;10.10;;;4.50;;
58240;SDS011;45058;55.772;38.224;2023-01-30T15:31:00;7.43;;;3.97;;
58240;SDS011;45058;55.772;38.224;2023-01-30T15:33:47;7.30;;;4.70;;
58240;SDS011;45058;55.772;38.224;2023-01-30T15:39:17;8.30;;;4.20;;
58240;SDS011;45058;55.772;38.224;2023-01-30T15:41:41;6.50;;;3.90;;
58240;SDS011;45058;55.772;38.224;2023-01-30T15:51:53;5.87;;;4.30;;
58240;SDS011;45058;55.772;38.224;2023-01-30T15:54:20;5.93;;;4.03;;
58240;SDS011;45058;55.772;38.224;2023-01-30T15:56:48;6.83;;;3.90;;
58240;SDS011;45058;55.772;38.224;2023-01-30T15:59:34;7.70;;;4.23;;
58240;SDS011;45058;55.772;38.224;2023-01-30T16:04:37;4.40;;;2.70;;
58240;SDS011;45058;55.772;38.224;2023-01-30T16:07:16;6.50;;;3.50;;
58240;SDS011;45058;55.772;38.224;2023-01-30T16:09:54;6.70;;;3.70;;
58240;SDS011;45058;55.772;38.224;2023-01-30T16:12:24;6.83;;;4.60;;
58240;SDS011;45058;55.772;38.224;2023-01-30T16:14:51;6.97;;;3.10;;
58240;SDS011;45058;55.772;38.224;2023-01-30T16:17:29;5.97;;;3.20;;
58240;SDS011;45058;55.772;38.224;2023-01-30T16:19:56;5.47;;;3.30;;
58240;SDS011;45058;55.772;38.224;2023-01-30T16:22:24;4.87;;;3.20;;
58240;SDS011;45058;55.772;38.224;2023-01-30T16:24:54;4.67;;;3.13;;
58240;SDS011;45058;55.772;38.224;2023-01-30T16:27:27;5.43;;;3.50;;
58240;SDS011;45058;55.772;38.224;2023-01-30T16:29:56;5.03;;;3.10;;
58240;SDS011;45058;55.772;38.224;2023-01-30T16:32:25;5.70;;;3.27;;
58240;SDS011;45058;55.772;38.224;2023-01-30T16:37:41;5.17;;;2.90;;
58240;SDS011;45058;55.772;38.224;2023-01-30T16:42:52;6.53;;;3.83;;
58240;SDS011;45058;55.772;38.224;2023-01-30T16:51:05;5.33;;;3.20;;
58240;SDS011;45058;55.772;38.224;2023-01-30T16:53:33;5.10;;;3.20;;
58240;SDS011;45058;55.772;38.224;2023-01-30T16:56:00;6.13;;;2.93;;
58240;SDS011;45058;55.772;38.224;2023-01-30T16:58:28;4.63;;;2.80;;
58240;SDS011;45058;55.772;38.224;2023-01-30T17:00:59;4.17;;;2.80;;
58240;SDS011;45058;55.772;38.224;2023-01-30T17:03:34;5.50;;;3.37;;
58240;SDS011;45058;55.772;38.224;2023-01-30T17:06:02;7.57;;;3.00;;
58240;SDS011;45058;55.772;38.224;2023-01-30T17:08:44;4.85;;;3.10;;
58240;SDS011;45058;55.772;38.224;2023-01-30T17:11:58;4.40;;;2.63;;
58240;SDS011;45058;55.772;38.224;2023-01-30T17:14:16;4.10;;;2.60;;
58240;SDS011;45058;55.772;38.224;2023-01-30T17:16:58;4.13;;;2.50;;
58240;SDS011;45058;55.772;38.224;2023-01-30T17:19:26;5.03;;;2.80;;
58240;SDS011;45058;55.772;38.224;2023-01-30T17:21:52;4.67;;;2.73;;
58240;SDS011;45058;55.772;38.224;2023-01-30T17:24:22;4.43;;;2.93;;
58240;SDS011;45058;55.772;38.224;2023-01-30T17:26:52;5.03;;;2.83;;
58240;SDS011;45058;55.772;38.224;2023-01-30T17:29:27;4.60;;;2.30;;
58240;SDS011;45058;55.772;38.224;2023-01-30T17:31:54;5.03;;;2.60;;
58240;SDS011;45058;55.772;38.224;2023-01-30T17:34:21;4.27;;;2.97;;
58240;SDS011;45058;55.772;38.224;2023-01-30T17:36:52;4.87;;;2.80;;
58240;SDS011;45058;55.772;38.224;2023-01-30T17:39:20;6.17;;;2.57;;
58240;SDS011;45058;55.772;38.224;2023-01-30T17:41:47;5.33;;;2.83;;
58240;SDS011;45058;55.772;38.224;2023-01-30T17:44:14;3.90;;;2.50;;
58240;SDS011;45058;55.772;38.224;2023-01-30T17:46:44;5.30;;;2.63;;